Airport ID:CYTF
Update Time (UTC):19/10/2019 03:06
Wind Speed (Knots):12
Wind Direction (Magnetic):340
Temperature (°C):6.9
Dew Point (°C):2.8
Humidity (%):75
Altimeter (inHg):29.83
Density Altitude (Feet):\\\\
Visibility (Miles):6
Clouds (Hundreds of feet):FEW025 OVC030
Present Weather:
METAR:SPECI CYTF 190301Z AUTO 32015G25KT 10SM FEW025 OVC030 07/03 A2982

The data displayed is for advisory purposes only and is not to be used for flight planning or operations.

This page is not automatically refreshed. Reload the page to see current data.